Time;durP1;ratioP1;P1;durP2;ratioP2;P2;SDS_P1;SDS_P2;PMS_P1;PMS_P2;Temp;Humidity;BMP_temperature;BMP_pressure;BME280_temperature;BME280_humidity;BME280_pressure;Samples;Min_cycle;Max_cycle;Signal;HPM_P1;HPM_P2
2021/09/30 00:00:00;;;;;;;;;1.00;1.00;;;;;14.78;nan;102149.66;4969613;28;45512;-83
2021/09/30 00:02:26;;;;;;;;;0.33;0.33;;;;;14.75;nan;102142.47;4951847;28;46931;-83
2021/09/30 00:04:52;;;;;;;;;0.67;0.67;;;;;14.91;nan;102149.03;4952563;28;44785;-83
2021/09/30 00:07:18;;;;;;;;;2.00;0.67;;;;;14.73;nan;102140.66;4969598;28;45705;-82
2021/09/30 00:09:46;;;;;;;;;1.00;1.00;;;;;14.71;nan;102148.66;4969873;28;45389;-83
2021/09/30 00:12:17;;;;;;;;;0.67;0.67;;;;;14.87;nan;102148.94;4970032;28;45130;-83
2021/09/30 00:49:32;;;;;;;;;1.00;1.00;;;;;14.60;nan;102135.06;4992109;28;44814;-82
2021/09/30 03:00:08;;;;;;;;;1.00;0.00;;;;;13.87;nan;102059.44;4851800;29;45472;-80
2021/09/30 03:02:37;;;;;;;;;0.00;0.00;;;;;13.92;nan;102071.16;4852287;29;45540;-81
2021/09/30 03:05:03;;;;;;;;;0.00;0.00;;;;;13.79;nan;102077.09;4851246;29;44877;-80
2021/09/30 03:07:30;;;;;;;;;1.33;0.67;;;;;13.78;nan;102070.84;4851144;29;45468;-81
2021/09/30 03:09:57;;;;;;;;;1.00;1.00;;;;;13.86;nan;102064.78;4851375;29;45513;-82
2021/09/30 03:12:30;;;;;;;;;0.00;0.00;;;;;13.76;nan;102067.25;4851579;29;45500;-81
2021/09/30 03:17:51;;;;;;;;;4.00;1.00;;;;;13.84;nan;102087.91;4888815;29;45510;-80
2021/09/30 03:20:30;;;;;;;;;1.00;1.00;;;;;13.88;nan;102088.00;4888200;29;45383;-80
2021/09/30 03:23:03;;;;;;;;;4.33;1.00;;;;;13.95;nan;102095.28;4890089;29;44818;-81
2021/09/30 03:25:29;;;;;;;;;1.00;1.00;;;;;13.73;nan;102085.00;4892221;28;45504;-80
2021/09/30 03:27:56;;;;;;;;;2.67;1.00;;;;;13.83;nan;102083.44;4907585;28;46834;-80
2021/09/30 03:30:24;;;;;;;;;2.00;2.00;;;;;13.88;nan;102081.78;4892603;29;44913;-80
2021/09/30 03:32:52;;;;;;;;;2.00;2.00;;;;;13.80;nan;102074.47;4908710;28;45539;-81
2021/09/30 03:35:18;;;;;;;;;2.33;2.33;;;;;13.79;nan;102083.38;4922094;28;45681;-81
2021/09/30 03:37:43;;;;;;;;;1.00;1.00;;;;;13.78;nan;102081.56;4947049;28;47663;-81
2021/09/30 03:40:09;;;;;;;;;1.33;0.67;;;;;13.77;nan;102085.09;4931850;28;45514;-81
2021/09/30 03:42:35;;;;;;;;;2.00;2.00;;;;;13.78;nan;102096.69;4949050;28;44838;-80
2021/09/30 03:45:00;;;;;;;;;2.00;2.00;;;;;13.71;nan;102082.28;4932431;28;45723;-80
2021/09/30 03:47:25;;;;;;;;;2.67;1.00;;;;;13.72;nan;102094.78;4960393;28;47128;-80
2021/09/30 03:49:52;;;;;;;;;3.00;3.00;;;;;13.70;nan;102093.84;4987460;28;45495;-81
2021/09/30 03:52:25;;;;;;;;;2.67;2.67;;;;;13.65;nan;102090.16;4988555;28;45449;-80
2021/09/30 03:59:47;;;;;;;;;4.00;2.00;;;;;13.65;nan;102103.53;4988959;28;44687;-80
2021/09/30 04:02:13;;;;;;;;;3.00;1.33;;;;;13.60;nan;102098.06;4970667;28;44791;-81
2021/09/30 04:04:42;;;;;;;;;2.33;2.33;;;;;13.71;nan;102116.13;4987764;28;45481;-79
2021/09/30 04:07:09;;;;;;;;;2.67;2.00;;;;;13.59;nan;102106.06;4985568;28;48102;-78
2021/09/30 04:09:37;;;;;;;;;1.00;1.00;;;;;13.58;nan;102109.59;4986666;28;45396;-80
2021/09/30 04:12:09;;;;;;;;;4.67;2.00;;;;;13.64;nan;102109.75;4969483;28;44756;-80
2021/09/30 04:14:35;;;;;;;;;2.00;2.00;;;;;13.49;nan;102109.38;4970518;28;45467;-81
2021/09/30 04:17:04;;;;;;;;;2.33;1.00;;;;;13.63;nan;102105.25;4987252;28;45466;-79
2021/09/30 04:19:31;;;;;;;;;1.00;1.00;;;;;13.45;nan;102102.16;4986232;28;45816;-80
2021/09/30 04:21:57;;;;;;;;;1.33;1.00;;;;;13.36;nan;102102.84;4970315;28;45411;-81
2021/09/30 04:24:22;;;;;;;;;0.00;0.00;;;;;13.41;nan;102106.50;4986879;28;45504;-80
2021/09/30 04:26:50;;;;;;;;;1.00;1.00;;;;;13.47;nan;102100.41;4987881;28;45424;-80
2021/09/30 04:29:17;;;;;;;;;1.67;1.67;;;;;13.53;nan;102112.19;4969492;28;45414;-81
2021/09/30 04:31:43;;;;;;;;;1.33;1.33;;;;;13.38;nan;102102.00;4971020;28;45680;-80
2021/09/30 04:34:09;;;;;;;;;1.33;1.00;;;;;13.37;nan;102112.66;4987778;28;45471;-81
2021/09/30 04:36:36;;;;;;;;;2.00;1.67;;;;;13.47;nan;102113.78;4988396;28;46224;-81
2021/09/30 04:39:02;;;;;;;;;4.00;1.00;;;;;13.24;nan;102099.84;4987236;28;46090;-81
2021/09/30 04:41:28;;;;;;;;;2.67;1.67;;;;;13.18;nan;102097.91;4985456;28;45411;-80
2021/09/30 04:43:53;;;;;;;;;3.00;3.00;;;;;13.13;nan;102100.47;4970175;28;45490;-81
2021/09/30 04:46:20;;;;;;;;;3.33;3.00;;;;;13.18;nan;102096.13;4987071;28;46041;-80
2021/09/30 04:48:47;;;;;;;;;2.00;2.00;;;;;13.11;nan;102095.94;4986020;28;45749;-81
2021/09/30 04:51:13;;;;;;;;;2.67;2.33;;;;;13.09;nan;102100.34;4985011;28;45387;-81
2021/09/30 04:54:16;;;;;;;;;3.00;2.00;;;;;13.30;nan;102097.34;4987036;28;45603;-80
2021/09/30 04:56:42;;;;;;;;;5.00;1.67;;;;;13.02;nan;102092.16;4988881;28;46110;-80
2021/09/30 04:59:07;;;;;;;;;2.67;1.67;;;;;12.99;nan;102077.84;4988188;28;45838;-80
2021/09/30 05:01:33;;;;;;;;;1.33;1.33;;;;;13.02;nan;102096.59;4988027;28;45448;-80
2021/09/30 05:03:59;;;;;;;;;1.33;1.33;;;;;12.95;nan;102090.22;4968619;28;45397;-81
2021/09/30 05:06:24;;;;;;;;;4.67;2.00;;;;;13.00;nan;102096.56;4987273;28;45443;-79
2021/09/30 05:08:50;;;;;;;;;1.00;1.00;;;;;13.04;nan;102094.00;4971208;28;44822;-80
2021/09/30 05:11:16;;;;;;;;;2.00;2.00;;;;;13.09;nan;102105.66;4971332;28;45565;-80
2021/09/30 05:13:53;;;;;;;;;1.00;1.00;;;;;13.10;nan;102104.81;4971961;28;46017;-80
2021/09/30 05:16:18;;;;;;;;;2.00;2.00;;;;;13.03;nan;102098.44;4989003;28;47034;-81
2021/09/30 05:18:49;;;;;;;;;4.33;3.00;;;;;13.05;nan;102098.44;4971351;28;45502;-81
2021/09/30 05:21:16;;;;;;;;;5.00;2.00;;;;;13.22;nan;102105.13;4972584;28;44852;-80
2021/09/30 05:23:41;;;;;;;;;3.00;2.67;;;;;13.04;nan;102097.56;4972138;28;44876;-83
2021/09/30 05:26:10;;;;;;;;;3.00;3.00;;;;;12.99;nan;102081.41;4987133;28;45602;-81
2021/09/30 05:28:35;;;;;;;;;3.00;2.00;;;;;13.01;nan;102101.06;4987903;28;45390;-81
2021/09/30 05:31:01;;;;;;;;;3.00;3.00;;;;;13.01;nan;102106.41;4979348;28;45575;-81
2021/09/30 05:33:33;;;;;;;;;3.67;3.67;;;;;13.07;nan;102086.03;4955395;28;44827;-80
2021/09/30 05:35:59;;;;;;;;;2.00;2.00;;;;;12.89;nan;102100.75;4938936;28;47360;-81
2021/09/30 05:38:25;;;;;;;;;2.00;1.00;;;;;12.97;nan;102112.53;4956360;28;45378;-82
2021/09/30 05:40:51;;;;;;;;;2.00;2.00;;;;;12.78;nan;102086.19;4956415;28;45378;-81
2021/09/30 05:43:23;;;;;;;;;3.67;3.00;;;;;12.91;nan;102080.31;4961187;28;45349;-82
2021/09/30 05:45:56;;;;;;;;;5.00;5.00;;;;;13.05;nan;102112.72;4960270;28;45340;-82
2021/09/30 05:48:23;;;;;;;;;6.00;4.00;;;;;12.64;nan;102068.91;4960891;28;45404;-82
2021/09/30 05:50:49;;;;;;;;;4.67;4.67;;;;;12.73;nan;102090.53;4977183;28;45385;-82
2021/09/30 05:53:15;;;;;;;;;5.33;3.00;;;;;12.85;nan;102106.88;4977771;28;44768;-82
2021/09/30 05:55:40;;;;;;;;;8.33;6.67;;;;;12.92;nan;102113.25;4976947;28;45443;-82
2021/09/30 05:58:06;;;;;;;;;4.00;4.00;;;;;13.01;nan;102114.41;4971097;28;45495;-82
2021/09/30 06:00:40;;;;;;;;;3.67;3.00;;;;;12.94;nan;102099.06;4970640;28;45292;-82
2021/09/30 06:14:23;;;;;;;;;7.00;7.00;;;;;13.33;nan;102109.03;4971845;28;44794;-79
2021/09/30 06:16:51;;;;;;;;;8.33;7.33;;;;;13.00;nan;102104.56;4973042;28;46516;-79
2021/09/30 06:19:21;;;;;;;;;7.00;5.00;;;;;13.13;nan;102115.59;4959324;28;44860;-80
2021/09/30 06:21:48;;;;;;;;;5.00;5.00;;;;;13.00;nan;102093.88;4957088;28;44901;-80
2021/09/30 06:24:18;;;;;;;;;11.00;6.67;;;;;13.20;nan;102118.44;4975082;28;45432;-80
2021/09/30 06:26:45;;;;;;;;;6.67;6.67;;;;;13.20;nan;102112.22;4973570;28;46850;-80
2021/09/30 06:29:12;;;;;;;;;4.00;4.00;;;;;13.25;nan;102120.31;4975590;28;45758;-80
2021/09/30 06:31:39;;;;;;;;;4.33;4.33;;;;;13.44;nan;102111.06;4957187;28;45548;-79
2021/09/30 06:34:05;;;;;;;;;4.00;4.00;;;;;13.27;nan;102097.22;4956432;28;44970;-79
2021/09/30 06:36:33;;;;;;;;;7.00;7.00;;;;;13.45;nan;102097.69;4971402;28;47206;-79
2021/09/30 06:38:59;;;;;;;;;10.33;5.00;;;;;13.29;nan;102107.13;4957144;28;45845;-81
2021/09/30 06:41:24;;;;;;;;;5.33;4.00;;;;;13.30;nan;102100.91;4956570;28;45343;-81
2021/09/30 06:43:50;;;;;;;;;5.33;4.00;;;;;13.28;nan;102105.28;4973910;28;45429;-81
2021/09/30 06:46:15;;;;;;;;;6.00;6.00;;;;;13.28;nan;102104.38;4964417;28;47102;-80
2021/09/30 06:48:41;;;;;;;;;7.00;5.00;;;;;13.25;nan;102105.22;4980339;28;44922;-80
2021/09/30 06:51:08;;;;;;;;;4.33;4.33;;;;;13.25;nan;102090.94;4989186;28;45390;-80
2021/09/30 06:53:37;;;;;;;;;6.33;5.00;;;;;13.42;nan;102086.06;4993284;28;45478;-80
2021/09/30 06:56:06;;;;;;;;;4.33;4.33;;;;;13.29;nan;102091.09;4992789;28;47446;-80
2021/09/30 06:58:31;;;;;;;;;5.33;5.33;;;;;13.29;nan;102091.09;4976354;28;45791;-80
2021/09/30 07:01:06;;;;;;;;;5.33;4.00;;;;;13.50;nan;102095.16;4993905;28;45716;-81
2021/09/30 07:03:58;;;;;;;;;7.67;7.00;;;;;13.49;nan;102096.94;4977133;28;45564;-83
2021/09/30 07:07:03;;;;;;;;;7.00;7.00;;;;;13.45;nan;102048.69;4991551;28;46283;-79
2021/09/30 07:09:39;;;;;;;;;8.67;7.00;;;;;13.54;nan;102059.63;4965655;28;45436;-83
2021/09/30 07:12:07;;;;;;;;;7.67;7.67;;;;;13.70;nan;102095.63;4974355;28;45367;-80
2021/09/30 07:15:21;;;;;;;;;;;;;;;;;;;;;
2021/09/30 07:17:52;;;;;;;;;7.00;7.00;;;;;13.99;nan;102099.84;4933924;28;74447;-80
2021/09/30 07:20:34;;;;;;;;;;;;;;;;;;;;;
2021/09/30 07:33:46;;;;;;;;;7.00;4.33;;;;;14.31;nan;102059.47;4912935;29;44852;-80
2021/09/30 07:37:26;;;;;;;;;6.67;3.33;;;;;14.74;nan;102097.81;4900954;28;45449;-82
2021/09/30 07:41:04;;;;;;;;;;;;;;;;;;;;;
2021/09/30 07:49:49;;;;;;;;;7.00;3.33;;;;;14.91;nan;102087.41;4773368;29;44966;-81
2021/09/30 07:53:10;;;;;;;;;;;;;;;;;;;;;
2021/09/30 08:02:33;;;;;;;;;4.33;4.00;;;;;15.72;nan;102068.16;4800765;29;44805;-82
2021/09/30 08:09:00;;;;;;;;;;;;;;;;;;;;;
2021/09/30 08:20:49;;;;;;;;;4.67;4.67;;;;;16.28;nan;102075.16;4081560;26;45223;-81
2021/09/30 08:27:30;;;;;;;;;;;;;;;;;;;;;
2021/09/30 08:50:43;;;;;;;;;1.67;1.67;;;;;17.32;nan;102095.03;4910193;29;45505;-84
2021/09/30 09:51:13;;;;;;;;;0.33;0.33;;;;;18.26;nan;102067.78;4882965;28;46203;-81
2021/09/30 09:57:26;;;;;;;;;1.00;1.00;;;;;18.45;nan;102056.16;4881067;29;44954;-80
2021/09/30 10:00:16;;;;;;;;;1.33;1.00;;;;;18.22;nan;102020.19;4866031;29;44981;-81
2021/09/30 10:03:34;;;;;;;;;;;;;;;;;;;;;
2021/09/30 10:16:40;;;;;;;;;1.00;1.00;;;;;18.49;nan;102028.34;5100726;23;46415;-81
2021/09/30 10:19:27;;;;;;;;;;;;;;;;;;;;;
2021/09/30 10:22:05;;;;;;;;;1.00;1.00;;;;;18.43;nan;102008.59;4845420;29;70089;-80
2021/09/30 10:32:10;;;;;;;;;1.00;1.00;;;;;18.72;nan;102016.69;4819818;29;45668;-79
2021/09/30 10:35:52;;;;;;;;;0.00;0.00;;;;;18.94;nan;102037.41;4879056;29;45466;-81
2021/09/30 10:39:32;;;;;;;;;1.00;1.00;;;;;18.81;nan;102005.06;4762630;29;45474;-80
2021/09/30 10:42:47;;;;;;;;;1.00;1.00;;;;;18.85;nan;101988.88;4749208;29;45498;-82
2021/09/30 10:46:01;;;;;;;;;;;;;;;;;;;;;
2021/09/30 10:49:26;;;;;;;;;;;;;;;;;;;;;
2021/09/30 10:56:10;;;;;;;;;;;;;;;;;;;;;
2021/09/30 10:59:23;;;;;;;;;1.00;1.00;;;;;19.38;nan;102001.38;4694065;30;71542;-81
2021/09/30 11:06:50;;;;;;;;;1.00;1.00;;;;;19.17;nan;102006.84;4681855;30;44858;-81
2021/09/30 11:20:34;;;;;;;;;;;;;;;;;;;;;
2021/09/30 11:23:52;;;;;;;;;;;;;;;;;;;;;
2021/09/30 11:27:04;;;;;;;;;1.00;0.00;;;;;19.54;nan;101958.19;4641798;30;72143;-80
2021/09/30 11:48:10;;;;;;;;;0.00;0.00;;;;;19.67;nan;101964.44;4868926;29;45565;-81
2021/09/30 11:54:06;;;;;;;;;0.00;0.00;;;;;19.62;nan;101941.97;4811706;29;46079;-82
2021/09/30 11:57:34;;;;;;;;;2.00;1.00;;;;;19.77;nan;101944.63;4831246;29;45491;-82
2021/09/30 12:00:33;;;;;;;;;2.00;2.00;;;;;19.62;nan;101902.38;4834995;29;45357;-81
2021/09/30 12:03:11;;;;;;;;;2.00;2.00;;;;;19.87;nan;101931.97;4781068;29;45605;-80
2021/09/30 12:05:39;;;;;;;;;4.00;2.00;;;;;19.82;nan;101933.81;4797117;29;45536;-81
2021/09/30 12:11:28;;;;;;;;;0.00;0.00;;;;;19.94;nan;101921.13;4784187;29;45611;-82
2021/09/30 12:19:30;;;;;;;;;;;;;;;;;;;;;
2021/09/30 13:05:38;;;;;;;;;0.00;0.00;;;;;20.37;nan;101845.19;4829192;29;45479;-81
2021/09/30 13:27:14;;;;;;;;;;;;;;;;;;;;;
2021/09/30 13:33:21;;;;;;;;;2.00;0.00;;;;;21.14;nan;101798.41;4789574;29;45489;-82
2021/09/30 13:36:49;;;;;;;;;2.33;1.00;;;;;21.16;nan;101796.59;4804286;29;45566;-83
2021/09/30 13:40:12;;;;;;;;;;;;;;;;;;;;;
2021/09/30 13:43:05;;;;;;;;;2.67;2.67;;;;;21.06;nan;101775.97;4799720;29;65044;-82
2021/09/30 13:49:00;;;;;;;;;2.00;2.00;;;;;21.08;nan;101774.16;4840939;29;45119;-82
2021/09/30 13:51:52;;;;;;;;;0.50;0.50;;;;;21.06;nan;101764.28;4822843;29;44858;-82
2021/09/30 14:00:48;;;;;;;;;0.00;0.00;;;;;20.74;nan;101708.78;4786884;29;44868;-82
2021/09/30 14:03:53;;;;;;;;;;;;;;;;;;;;;
2021/09/30 14:06:52;;;;;;;;;;;;;;;;;;;;;
2021/09/30 14:35:50;;;;;;;;;0.00;0.00;;;;;21.95;nan;101697.97;4923259;23;45926;-82
2021/09/30 14:45:24;;;;;;;;;0.00;0.00;;;;;22.28;nan;101652.22;4693219;30;45363;-81
2021/09/30 14:48:55;;;;;;;;;1.00;0.00;;;;;22.67;nan;101688.47;4697840;30;47114;-80
2021/09/30 14:52:21;;;;;;;;;;;;;;;;;;;;;
2021/09/30 14:55:24;;;;;;;;;0.67;0.67;;;;;22.43;nan;101646.50;4663213;30;68039;-81
2021/09/30 14:58:09;;;;;;;;;2.33;1.00;;;;;22.67;nan;101684.88;4677206;30;44887;-81
2021/09/30 15:01:15;;;;;;;;;2.00;2.00;;;;;22.41;nan;101623.94;4679108;30;45406;-81
2021/09/30 15:10:59;;;;;;;;;;;;;;;;;;;;;
2021/09/30 15:17:19;;;;;;;;;0.50;0.50;;;;;22.65;nan;101632.50;4764763;29;45363;-80
2021/09/30 15:21:20;;;;;;;;;0.50;0.50;;;;;22.71;nan;101630.53;4731437;30;45524;-82
2021/09/30 15:26:09;;;;;;;;;;;;;;;;;;;;;
2021/09/30 15:32:41;;;;;;;;;1.00;0.00;;;;;23.01;nan;101624.44;4781983;29;45442;-81
2021/09/30 15:39:34;;;;;;;;;1.00;1.00;;;;;23.09;nan;101617.06;4762371;29;45674;-81
2021/09/30 15:42:29;;;;;;;;;2.00;0.25;;;;;22.82;nan;101584.16;4751803;29;44955;-81
2021/09/30 15:45:56;;;;;;;;;;;;;;;;;;;;;
2021/09/30 15:48:42;;;;;;;;;1.00;1.00;;;;;22.40;nan;101586.03;4731673;29;65134;-83
2021/09/30 15:51:17;;;;;;;;;1.33;1.33;;;;;22.54;nan;101606.50;4731695;30;47445;-81
2021/09/30 15:54:01;;;;;;;;;3.00;2.00;;;;;22.43;nan;101608.53;4742610;30;44945;-82
2021/09/30 15:57:23;;;;;;;;;1.00;1.00;;;;;22.40;nan;101613.13;4749149;30;45408;-82
2021/09/30 15:59:49;;;;;;;;;1.00;1.00;;;;;21.85;nan;101567.25;4776325;29;44929;-81
2021/09/30 16:02:15;;;;;;;;;1.33;1.33;;;;;21.90;nan;101613.22;4801505;29;46710;-80
2021/09/30 16:04:41;;;;;;;;;1.00;1.00;;;;;21.68;nan;101616.31;4784233;29;45326;-81
2021/09/30 16:11:18;;;;;;;;;1.33;1.33;;;;;21.72;nan;101603.63;4821600;29;44875;-81
2021/09/30 16:14:07;;;;;;;;;1.00;1.00;;;;;21.65;nan;101599.22;4858824;29;45635;-81
2021/09/30 16:16:36;;;;;;;;;1.00;1.00;;;;;21.30;nan;101563.72;4857889;29;45815;-81
2021/09/30 16:19:04;;;;;;;;;1.00;1.00;;;;;21.15;nan;101561.28;4843805;29;44837;-82
2021/09/30 16:21:38;;;;;;;;;2.00;2.00;;;;;21.10;nan;101565.88;4860874;29;45426;-81
2021/09/30 16:24:37;;;;;;;;;3.00;2.00;;;;;21.29;nan;101571.84;4867954;29;45483;-82
2021/09/30 16:27:10;;;;;;;;;1.67;1.67;;;;;21.24;nan;101555.69;4876839;29;45579;-82
2021/09/30 16:29:49;;;;;;;;;;;;;;;;;;;;;
2021/09/30 16:36:21;;;;;;;;;2.00;0.00;;;;;21.07;nan;101538.88;4747879;30;45742;-83
2021/09/30 16:39:03;;;;;;;;;4.00;2.67;;;;;20.95;nan;101578.72;4761440;29;45372;-83
2021/09/30 16:41:51;;;;;;;;;2.75;0.25;;;;;21.11;nan;101592.00;4751478;29;44994;-82
2021/09/30 16:45:27;;;;;;;;;;;;;;;;;;;;;
2021/09/30 16:48:18;;;;;;;;;0.33;0.33;;;;;21.00;nan;101602.97;4765641;29;45036;-82
2021/09/30 16:50:45;;;;;;;;;2.00;1.67;;;;;20.68;nan;101598.97;4768213;29;44836;-81
2021/09/30 16:53:40;;;;;;;;;7.33;7.33;;;;;20.64;nan;101577.38;4768267;29;44837;-79
2021/09/30 16:56:10;;;;;;;;;1.67;1.33;;;;;20.45;nan;101561.41;4767087;29;45538;-81
2021/09/30 16:58:39;;;;;;;;;1.00;1.00;;;;;20.45;nan;101569.50;4768497;29;46793;-80
2021/09/30 17:01:08;;;;;;;;;2.00;2.00;;;;;20.34;nan;101569.66;4753853;29;45607;-82
2021/09/30 17:03:37;;;;;;;;;1.00;1.00;;;;;20.25;nan;101548.16;4767950;29;45405;-80
2021/09/30 17:06:09;;;;;;;;;1.00;1.00;;;;;20.20;nan;101579.75;4767695;29;45507;-82
2021/09/30 17:08:34;;;;;;;;;1.00;1.00;;;;;20.04;nan;101561.94;4768271;29;46371;-82
2021/09/30 17:11:08;;;;;;;;;2.67;2.00;;;;;20.10;nan;101557.34;4767843;29;44815;-82
2021/09/30 17:13:36;;;;;;;;;1.00;1.00;;;;;20.31;nan;101585.88;4839768;29;45552;-82
2021/09/30 17:16:17;;;;;;;;;1.00;1.00;;;;;20.38;nan;101597.53;4842329;29;44859;-82
2021/09/30 17:25:12;;;;;;;;;1.67;1.67;;;;;20.04;nan;101591.66;4775086;29;44971;-82
2021/09/30 17:27:38;;;;;;;;;5.33;5.33;;;;;19.80;nan;101574.81;4768235;29;45401;-81
2021/09/30 17:30:09;;;;;;;;;2.00;2.00;;;;;20.03;nan;101592.53;4770821;29;47098;-81
2021/09/30 17:32:56;;;;;;;;;1.33;1.33;;;;;20.02;nan;101599.75;4787912;29;44848;-81
2021/09/30 17:35:23;;;;;;;;;2.00;2.00;;;;;19.61;nan;101565.94;4790171;29;44848;-81
2021/09/30 17:37:54;;;;;;;;;6.33;4.00;;;;;19.57;nan;101583.09;4802535;29;45388;-81
2021/09/30 17:40:21;;;;;;;;;2.00;2.00;;;;;19.47;nan;101574.22;4785148;29;46885;-81
2021/09/30 17:42:48;;;;;;;;;2.33;2.00;;;;;19.57;nan;101604.66;4786985;29;45590;-81
2021/09/30 17:45:16;;;;;;;;;3.00;3.00;;;;;19.52;nan;101577.75;4788441;29;44852;-81
2021/09/30 17:47:42;;;;;;;;;2.00;2.00;;;;;19.46;nan;101594.00;4789155;29;45475;-81
2021/09/30 17:50:11;;;;;;;;;2.00;2.00;;;;;19.49;nan;101609.25;4802745;29;45576;-80
2021/09/30 17:52:37;;;;;;;;;1.00;1.00;;;;;19.33;nan;101598.59;4801172;29;45467;-81
2021/09/30 17:55:10;;;;;;;;;2.67;1.00;;;;;19.21;nan;101566.34;4787013;29;45741;-80
2021/09/30 17:57:37;;;;;;;;;4.33;2.67;;;;;19.29;nan;101606.72;4801980;29;45662;-81
2021/09/30 18:00:08;;;;;;;;;3.00;3.00;;;;;19.31;nan;101591.41;4788174;29;46689;-81
2021/09/30 18:02:33;;;;;;;;;3.00;3.00;;;;;19.08;nan;101588.91;4853696;29;44772;-81
2021/09/30 18:05:01;;;;;;;;;3.67;3.00;;;;;19.11;nan;101605.97;4859714;29;44824;-82
2021/09/30 18:07:28;;;;;;;;;6.00;5.00;;;;;18.95;nan;101590.81;4859291;29;44766;-81
2021/09/30 18:09:54;;;;;;;;;3.33;2.00;;;;;18.97;nan;101602.47;4860438;29;45600;-80
2021/09/30 18:12:20;;;;;;;;;3.00;3.00;;;;;18.83;nan;101588.22;4843686;29;45328;-81
2021/09/30 18:14:45;;;;;;;;;6.00;4.00;;;;;18.75;nan;101590.91;4860486;29;45403;-80
2021/09/30 18:17:11;;;;;;;;;4.33;4.00;;;;;18.76;nan;101595.38;4860242;29;45248;-80
2021/09/30 18:19:36;;;;;;;;;2.00;2.00;;;;;18.63;nan;101577.50;4843681;29;45379;-81
2021/09/30 18:22:02;;;;;;;;;3.67;3.67;;;;;18.60;nan;101575.72;4858091;29;45029;-79
2021/09/30 18:27:04;;;;;;;;;4.67;4.00;;;;;18.62;nan;101581.97;4861044;29;45399;-81
2021/09/30 18:29:30;;;;;;;;;4.67;3.33;;;;;18.54;nan;101600.91;4859663;29;47164;-82
2021/09/30 18:31:57;;;;;;;;;3.33;2.00;;;;;18.52;nan;101600.03;4858960;29;45383;-81
2021/09/30 18:34:26;;;;;;;;;2.00;2.00;;;;;18.48;nan;101595.56;4861940;29;45387;-81
2021/09/30 18:36:55;;;;;;;;;5.00;3.00;;;;;18.51;nan;101595.53;4844667;29;44806;-82
2021/09/30 18:39:24;;;;;;;;;4.00;2.67;;;;;18.45;nan;101595.56;4858716;29;45455;-81
2021/09/30 18:41:52;;;;;;;;;2.00;2.00;;;;;18.42;nan;101598.28;4842877;29;45395;-80
2021/09/30 18:44:18;;;;;;;;;5.00;2.00;;;;;18.34;nan;101600.09;4859949;29;46023;-80
2021/09/30 18:46:43;;;;;;;;;4.00;3.00;;;;;18.30;nan;101606.38;4843852;29;44903;-81
2021/09/30 18:49:09;;;;;;;;;3.00;3.00;;;;;18.28;nan;101613.56;4859319;29;45199;-80
2021/09/30 18:51:34;;;;;;;;;5.33;3.67;;;;;18.25;nan;101616.28;4843205;29;44875;-81
2021/09/30 18:54:01;;;;;;;;;5.00;5.00;;;;;18.27;nan;101620.75;4858826;29;45417;-81
2021/09/30 18:56:27;;;;;;;;;3.67;3.67;;;;;18.19;nan;101614.50;4844075;29;45367;-82
2021/09/30 18:58:53;;;;;;;;;3.33;3.33;;;;;18.16;nan;101615.44;4844194;29;47052;-80
2021/09/30 19:01:21;;;;;;;;;6.00;4.00;;;;;18.11;nan;101605.56;4842972;29;45449;-81
2021/09/30 19:03:46;;;;;;;;;2.33;2.33;;;;;18.13;nan;101610.03;4860640;29;45551;-80
2021/09/30 19:06:12;;;;;;;;;5.00;4.00;;;;;18.07;nan;101604.66;4860479;29;45451;-79
2021/09/30 19:08:37;;;;;;;;;2.00;2.00;;;;;18.07;nan;101603.78;4841530;29;46937;-79
2021/09/30 19:11:03;;;;;;;;;3.00;3.00;;;;;18.13;nan;101609.16;4841892;29;45693;-80
2021/09/30 19:13:29;;;;;;;;;2.33;2.33;;;;;18.03;nan;101608.28;4858385;29;45560;-81
2021/09/30 19:15:55;;;;;;;;;2.67;2.33;;;;;18.03;nan;101600.19;4843782;29;45294;-80
2021/09/30 19:18:22;;;;;;;;;2.00;1.33;;;;;18.07;nan;101604.66;4857698;29;46841;-81
2021/09/30 19:20:51;;;;;;;;;3.33;3.33;;;;;18.28;nan;101602.81;4859164;29;45189;-81
2021/09/30 19:23:18;;;;;;;;;1.00;1.00;;;;;18.13;nan;101599.28;4858774;29;45486;-81
2021/09/30 19:25:44;;;;;;;;;2.67;2.67;;;;;18.10;nan;101596.59;4858813;29;45444;-80
2021/09/30 19:28:10;;;;;;;;;2.00;2.00;;;;;18.09;nan;101594.78;4860700;29;45442;-81
2021/09/30 19:30:36;;;;;;;;;2.00;2.00;;;;;18.13;nan;101598.38;4840767;29;45219;-80
2021/09/30 19:33:03;;;;;;;;;4.00;2.00;;;;;18.14;nan;101598.38;4840898;29;45414;-80
2021/09/30 19:35:31;;;;;;;;;2.67;2.67;;;;;18.15;nan;101605.53;4840252;29;44778;-81
2021/09/30 19:37:56;;;;;;;;;1.67;1.67;;;;;17.98;nan;101593.94;4839741;29;47222;-80
2021/09/30 19:40:25;;;;;;;;;6.00;4.67;;;;;17.99;nan;101598.41;4846899;29;45444;-81
2021/09/30 19:42:52;;;;;;;;;3.33;3.33;;;;;17.93;nan;101587.66;4859639;29;45441;-81
2021/09/30 19:45:18;;;;;;;;;2.00;1.00;;;;;17.90;nan;101588.59;4860240;29;44795;-80
2021/09/30 19:47:45;;;;;;;;;2.00;2.00;;;;;17.90;nan;101595.78;4860486;29;45355;-81
2021/09/30 19:50:11;;;;;;;;;3.00;3.00;;;;;17.90;nan;101590.38;4859380;29;44796;-81
2021/09/30 19:52:37;;;;;;;;;9.00;9.00;;;;;17.89;nan;101591.28;4858788;29;45400;-79
2021/09/30 19:55:04;;;;;;;;;6.33;5.00;;;;;17.94;nan;101597.56;4858973;29;45405;-80
2021/09/30 19:57:30;;;;;;;;;2.00;2.00;;;;;17.86;nan;101588.59;4857613;29;45389;-80
2021/09/30 19:59:55;;;;;;;;;4.00;4.00;;;;;17.79;nan;101588.59;4857118;29;45774;-80
2021/09/30 20:02:22;;;;;;;;;4.00;2.00;;;;;17.89;nan;101583.19;4857582;29;45506;-80
2021/09/30 20:04:47;;;;;;;;;6.00;3.00;;;;;17.77;nan;101585.00;4859344;29;44862;-80
2021/09/30 20:07:13;;;;;;;;;2.33;2.33;;;;;17.75;nan;101583.19;4857759;29;47093;-80
2021/09/30 20:09:38;;;;;;;;;3.00;2.00;;;;;17.70;nan;101576.94;4858544;29;45332;-81
2021/09/30 20:12:04;;;;;;;;;3.00;3.00;;;;;17.74;nan;101571.53;4857429;29;45067;-81
2021/09/30 20:14:31;;;;;;;;;5.00;4.00;;;;;17.83;nan;101567.03;4860425;29;44744;-81
2021/09/30 20:16:56;;;;;;;;;3.00;3.00;;;;;17.71;nan;101563.47;4858591;29;45504;-80
2021/09/30 20:19:22;;;;;;;;;4.00;4.00;;;;;17.69;nan;101559.00;4859716;29;44874;-81
2021/09/30 20:21:47;;;;;;;;;3.00;3.00;;;;;17.70;nan;101550.94;4840173;29;46013;-80
2021/09/30 20:24:13;;;;;;;;;3.00;3.00;;;;;17.74;nan;101552.72;4842788;29;44925;-81
2021/09/30 20:26:40;;;;;;;;;1.67;1.67;;;;;17.82;nan;101544.63;4840842;29;47052;-80
2021/09/30 20:29:07;;;;;;;;;2.00;2.00;;;;;17.73;nan;101550.94;4857830;29;45530;-80
2021/09/30 20:31:35;;;;;;;;;2.33;2.00;;;;;17.69;nan;101543.75;4857817;29;45438;-80
2021/09/30 20:34:02;;;;;;;;;3.00;3.00;;;;;17.65;nan;101550.03;4842244;29;45448;-82
2021/09/30 20:36:29;;;;;;;;;1.00;1.00;;;;;17.59;nan;101537.50;4842289;29;46200;-81
2021/09/30 20:38:56;;;;;;;;;2.00;2.00;;;;;17.62;nan;101546.47;4855314;29;44808;-79
2021/09/30 20:41:23;;;;;;;;;2.00;2.00;;;;;17.70;nan;101550.94;4856261;29;44817;-81
2021/09/30 20:43:49;;;;;;;;;3.00;3.00;;;;;17.53;nan;101544.69;4840696;29;44750;-81
2021/09/30 20:46:15;;;;;;;;;2.67;2.00;;;;;17.54;nan;101542.00;4858271;29;45161;-80
2021/09/30 20:48:40;;;;;;;;;2.00;2.00;;;;;17.49;nan;101535.75;4858640;29;44760;-79
2021/09/30 20:51:07;;;;;;;;;2.00;2.00;;;;;17.64;nan;101539.28;4858101;29;45316;-81
2021/09/30 20:53:34;;;;;;;;;1.00;1.00;;;;;17.46;nan;101534.84;4857911;29;45907;-81
2021/09/30 20:55:59;;;;;;;;;3.00;3.00;;;;;17.42;nan;101527.69;4856553;29;46817;-82
2021/09/30 20:58:26;;;;;;;;;4.00;4.00;;;;;17.40;nan;101520.50;4857740;29;44870;-80
2021/09/30 21:00:53;;;;;;;;;4.00;4.00;;;;;17.40;nan;101520.50;4860123;29;45524;-80
2021/09/30 21:03:18;;;;;;;;;1.67;1.00;;;;;17.36;nan;101521.41;4845977;29;45352;-80
2021/09/30 21:05:44;;;;;;;;;3.67;3.67;;;;;17.35;nan;101511.56;4862937;29;45248;-81
2021/09/30 21:08:09;;;;;;;;;4.00;4.00;;;;;17.38;nan;101521.41;4846069;29;45269;-80
2021/09/30 21:10:35;;;;;;;;;2.00;2.00;;;;;17.30;nan;101510.66;4846535;29;45453;-80
2021/09/30 21:13:00;;;;;;;;;2.00;2.00;;;;;17.30;nan;101510.66;4864354;29;45380;-81
2021/09/30 21:15:26;;;;;;;;;3.33;3.00;;;;;17.31;nan;101515.16;4862381;29;46784;-81
2021/09/30 21:21:13;;;;;;;;;2.00;2.00;;;;;17.28;nan;101514.25;4862881;29;45372;-80
2021/09/30 21:23:40;;;;;;;;;2.00;2.00;;;;;17.29;nan;101507.97;4845636;29;45404;-81
2021/09/30 21:26:06;;;;;;;;;3.33;2.00;;;;;17.30;nan;101499.91;4849209;29;46899;-80
2021/09/30 21:28:31;;;;;;;;;3.00;2.00;;;;;17.23;nan;101487.38;4848640;29;45129;-79
2021/09/30 21:30:57;;;;;;;;;5.00;2.00;;;;;17.31;nan;101490.03;4865314;29;45445;-79